createdAt,value
2019-06-10T00:02:26.019Z,21.83
2019-06-10T00:04:57.592Z,21.86
2019-06-10T00:07:28.737Z,21.86
2019-06-10T00:10:02.158Z,21.79
2019-06-10T00:12:32.633Z,21.75
2019-06-10T00:15:06.247Z,21.80
2019-06-10T00:17:52.497Z,21.72
2019-06-10T00:20:11.260Z,21.68
2019-06-10T00:22:42.293Z,21.67
2019-06-10T00:25:13.689Z,21.70
2019-06-10T00:27:44.919Z,21.66
2019-06-10T00:30:16.235Z,21.68
2019-06-10T00:32:47.435Z,21.59
2019-06-10T00:35:18.317Z,21.54
2019-06-10T00:37:51.251Z,21.60
2019-06-10T00:40:21.986Z,21.52
2019-06-10T00:42:52.894Z,21.48
2019-06-10T00:45:24.022Z,21.48
2019-06-10T00:48:08.610Z,21.45
2019-06-10T00:50:27.680Z,21.43
2019-06-10T00:53:00.970Z,21.44
2019-06-10T00:55:31.514Z,21.46
2019-06-10T00:58:04.039Z,21.43
2019-06-10T01:00:35.493Z,21.40
2019-06-10T01:03:08.029Z,21.41
2019-06-10T01:05:41.747Z,21.41
2019-06-10T01:08:15.555Z,21.41
2019-06-10T01:10:45.074Z,21.43
2019-06-10T01:13:16.206Z,21.41
2019-06-10T01:15:47.260Z,21.42
2019-06-10T01:18:32.007Z,21.39
2019-06-10T01:20:51.736Z,21.39
2019-06-10T01:23:22.945Z,21.39
2019-06-10T01:25:53.952Z,21.39
2019-06-10T01:28:24.905Z,21.34
2019-06-10T01:30:55.853Z,21.42
2019-06-10T01:33:26.948Z,21.39
2019-06-10T01:35:57.926Z,21.36
2019-06-10T01:38:28.825Z,21.33
2019-06-10T01:41:01.540Z,21.24
2019-06-10T01:43:32.283Z,21.18
2019-06-10T01:46:03.716Z,21.17
2019-06-10T01:48:44.108Z,21.13
2019-06-10T01:51:07.506Z,21.10
2019-06-10T01:53:38.700Z,21.04
2019-06-10T01:56:12.401Z,21.01
2019-06-10T01:58:42.607Z,20.98
2019-06-10T02:01:23.121Z,20.99
2019-06-10T02:03:52.050Z,20.94
2019-06-10T02:06:25.800Z,20.97
2019-06-10T02:08:57.281Z,20.96
2019-06-10T02:11:28.451Z,20.97
2019-06-10T02:14:00.883Z,20.95
2019-06-10T02:16:32.513Z,20.96
2019-06-10T02:19:04.369Z,20.98
2019-06-10T02:21:35.600Z,20.97
2019-06-10T02:24:06.841Z,20.94
2019-06-10T02:26:38.090Z,20.96
2019-06-10T02:29:11.187Z,20.93
2019-06-10T02:31:43.248Z,20.93
2019-06-10T02:34:19.659Z,20.96
2019-06-10T02:36:48.111Z,20.99
2019-06-10T02:39:26.387Z,20.94
2019-06-10T02:41:54.007Z,20.94
2019-06-10T02:44:32.486Z,20.93
2019-06-10T02:46:58.084Z,20.95
2019-06-10T02:49:50.619Z,20.97
2019-06-10T02:52:03.767Z,21.02
2019-06-10T02:54:35.926Z,20.97
2019-06-10T02:57:07.291Z,20.93
2019-06-10T02:59:38.471Z,20.97
2019-06-10T03:02:09.432Z,20.91
2019-06-10T03:04:43.329Z,20.98
2019-06-10T03:07:13.786Z,20.98
2019-06-10T03:09:44.754Z,21.05
2019-06-10T03:12:15.801Z,21.06
2019-06-10T03:14:48.555Z,21.11
2019-06-10T03:17:24.571Z,21.06
2019-06-10T03:19:53.907Z,21.11
2019-06-10T03:22:25.838Z,21.15
2019-06-10T03:24:57.071Z,21.18
2019-06-10T03:27:28.078Z,21.23
2019-06-10T03:29:59.043Z,21.23
2019-06-10T03:32:40.087Z,21.24
2019-06-10T03:35:05.431Z,21.27
2019-06-10T03:37:36.383Z,21.30
2019-06-10T03:40:08.385Z,21.37
2019-06-10T03:42:39.416Z,21.38
2019-06-10T03:45:12.607Z,21.38
2019-06-10T03:47:43.986Z,21.40
2019-06-10T03:50:17.066Z,21.41
2019-06-10T03:52:48.016Z,21.42
2019-06-10T03:55:22.987Z,21.52
2019-06-10T03:57:52.724Z,21.57
2019-06-10T04:00:25.540Z,21.62
2019-06-10T04:02:56.711Z,21.59
2019-06-10T04:05:28.886Z,21.58
2019-06-10T04:08:02.105Z,21.64
2019-06-10T04:10:32.636Z,21.67
2019-06-10T04:13:03.603Z,21.64
2019-06-10T04:15:35.329Z,21.77
2019-06-10T04:18:06.377Z,21.76
2019-06-10T04:20:37.521Z,21.74
2019-06-10T04:23:08.432Z,21.86
2019-06-10T04:25:43.401Z,21.87
2019-06-10T04:28:14.378Z,21.82
2019-06-10T04:30:45.571Z,21.85
2019-06-10T04:33:16.714Z,21.86
2019-06-10T04:35:47.951Z,21.90
2019-06-10T04:38:20.301Z,21.95
2019-06-10T04:40:52.542Z,21.99
2019-06-10T04:43:26.004Z,22.02
2019-06-10T04:45:56.349Z,22.08
2019-06-10T04:48:28.071Z,22.15
2019-06-10T04:51:02.463Z,22.17
2019-06-10T04:53:33.262Z,22.25
2019-06-10T04:56:04.557Z,22.25
2019-06-10T04:58:35.712Z,22.33
2019-06-10T05:01:08.042Z,22.36
2019-06-10T05:03:39.184Z,22.37
2019-06-10T05:06:12.380Z,22.42
2019-06-10T05:08:43.025Z,22.54
2019-06-10T05:11:14.067Z,22.59
2019-06-10T05:13:45.246Z,22.60
2019-06-10T05:16:16.312Z,22.62
2019-06-10T05:18:54.017Z,22.64
2019-06-10T05:21:25.063Z,22.68
2019-06-10T05:23:55.986Z,22.77
2019-06-10T05:26:28.803Z,22.78
2019-06-10T05:29:00.298Z,22.89
2019-06-10T05:31:35.121Z,22.94
2019-06-10T05:34:04.246Z,23.03
2019-06-10T05:36:35.510Z,23.08
2019-06-10T05:39:08.534Z,23.15
2019-06-10T05:41:39.504Z,23.21
2019-06-10T05:44:13.191Z,23.29
2019-06-10T05:46:43.782Z,23.34
2019-06-10T05:49:14.981Z,23.42
2019-06-10T05:51:45.962Z,23.50
2019-06-10T05:54:17.212Z,23.41
2019-06-10T05:56:48.207Z,23.59
2019-06-10T05:59:19.344Z,23.61
2019-06-10T06:01:53.665Z,23.58
2019-06-10T06:04:24.637Z,23.69
2019-06-10T06:06:55.657Z,23.83
2019-06-10T06:09:27.171Z,23.88
2019-06-10T06:11:58.244Z,24.01
2019-06-10T06:14:29.557Z,24.09
2019-06-10T06:17:02.234Z,24.22
2019-06-10T06:19:37.370Z,24.29
2019-06-10T06:22:07.481Z,24.29
2019-06-10T06:24:38.514Z,24.43
2019-06-10T06:27:09.575Z,24.53
2019-06-10T06:29:42.955Z,24.61
2019-06-10T06:32:13.521Z,24.72
2019-06-10T06:34:44.617Z,24.85
2019-06-10T06:37:15.732Z,24.98
2019-06-10T06:39:46.872Z,24.99
2019-06-10T06:42:18.044Z,25.18
2019-06-10T06:44:49.156Z,25.32
2019-06-10T06:47:22.680Z,25.38
2019-06-10T06:49:53.544Z,25.50
2019-06-10T06:52:46.994Z,25.63
2019-06-10T06:54:57.492Z,25.72
2019-06-10T06:57:28.928Z,25.81
2019-06-10T07:00:22.460Z,25.93
2019-06-10T07:02:37.186Z,26.03
2019-06-10T07:05:09.016Z,26.16
2019-06-10T07:07:41.121Z,26.20
2019-06-10T07:10:13.155Z,26.35
2019-06-10T07:12:45.880Z,26.38
2019-06-10T07:15:18.820Z,26.49
2019-06-10T07:17:52.540Z,26.61
2019-06-10T07:20:23.052Z,26.75
2019-06-10T07:22:54.378Z,26.86
2019-06-10T07:25:26.031Z,26.94
2019-06-10T07:27:57.305Z,27.07
2019-06-10T07:30:28.477Z,27.05
2019-06-10T07:32:59.556Z,27.19
2019-06-10T07:35:32.611Z,27.26
2019-06-10T07:38:03.632Z,27.32
2019-06-10T07:40:36.203Z,27.46
2019-06-10T07:43:07.718Z,27.53
2019-06-10T07:45:41.587Z,27.60
2019-06-10T07:48:12.227Z,27.76
2019-06-10T07:50:45.614Z,27.87
2019-06-10T07:53:16.258Z,27.91
2019-06-10T07:55:47.106Z,28.10
2019-06-10T07:58:18.420Z,28.12
2019-06-10T08:00:49.490Z,28.27
2019-06-10T08:03:22.487Z,28.37
2019-06-10T08:05:54.201Z,28.45
2019-06-10T08:08:26.828Z,28.44
2019-06-10T08:10:57.914Z,28.58
2019-06-10T08:13:29.039Z,28.72
2019-06-10T08:16:02.536Z,28.86
2019-06-10T08:18:41.790Z,28.51
2019-06-10T08:21:07.624Z,28.90
2019-06-10T08:23:38.721Z,29.03
2019-06-10T08:26:12.456Z,29.20
2019-06-10T08:28:46.391Z,29.21
2019-06-10T08:31:15.239Z,29.35
2019-06-10T08:33:49.008Z,29.48
2019-06-10T08:36:21.981Z,29.60
2019-06-10T08:38:52.901Z,29.73
2019-06-10T08:41:24.665Z,29.86
2019-06-10T08:43:55.741Z,30.00
2019-06-10T08:46:26.913Z,30.06
2019-06-10T08:48:58.258Z,30.13
2019-06-10T08:51:29.235Z,29.67
2019-06-10T08:54:02.392Z,30.03
2019-06-10T08:56:32.994Z,30.16
2019-06-10T08:59:04.410Z,30.39
2019-06-10T09:01:35.549Z,30.55
2019-06-10T09:04:06.869Z,30.60
2019-06-10T09:06:39.224Z,30.77
2019-06-10T09:09:12.854Z,30.99
2019-06-10T09:11:47.503Z,31.04
2019-06-10T09:14:16.752Z,31.12
2019-06-10T09:16:49.346Z,31.24
2019-06-10T09:19:22.192Z,31.32
2019-06-10T09:21:56.126Z,31.33
2019-06-10T09:24:26.061Z,31.50
2019-06-10T09:26:57.099Z,31.24
2019-06-10T09:29:28.219Z,31.37
2019-06-10T09:31:59.227Z,31.55
2019-06-10T09:34:32.856Z,31.29
2019-06-10T09:37:04.143Z,31.56
2019-06-10T09:39:35.251Z,31.73
2019-06-10T09:42:06.962Z,31.95
2019-06-10T09:44:41.661Z,32.11
2019-06-10T09:47:14.250Z,32.16
2019-06-10T09:49:47.305Z,32.28
2019-06-10T09:52:17.979Z,32.48
2019-06-10T09:54:55.718Z,32.50
2019-06-10T09:57:23.855Z,32.60
2019-06-10T09:59:56.447Z,32.63
2019-06-10T10:02:27.495Z,32.66
2019-06-10T10:05:00.355Z,32.40
2019-06-10T10:07:32.567Z,32.48
2019-06-10T10:10:05.585Z,32.79
2019-06-10T10:12:36.524Z,32.80
2019-06-10T10:15:26.642Z,33.10
2019-06-10T10:17:44.831Z,33.31
2019-06-10T10:20:16.769Z,33.14
2019-06-10T10:22:49.235Z,33.41
2019-06-10T10:25:23.409Z,33.51
2019-06-10T10:27:57.387Z,33.32
2019-06-10T10:30:28.304Z,33.64
2019-06-10T10:32:59.208Z,33.48
2019-06-10T10:35:32.517Z,33.77
2019-06-10T10:38:03.907Z,33.51
2019-06-10T10:40:35.310Z,34.01
2019-06-10T10:43:24.492Z,34.11
2019-06-10T10:45:42.335Z,34.25
2019-06-10T10:48:14.080Z,33.64
2019-06-10T10:50:45.685Z,33.57
2019-06-10T10:53:18.106Z,33.99
2019-06-10T10:55:49.262Z,33.93
2019-06-10T10:58:22.501Z,34.01
2019-06-10T11:00:56.791Z,34.17
2019-06-10T11:03:25.840Z,34.25
2019-06-10T11:06:00.711Z,34.34
2019-06-10T11:08:32.393Z,34.41
2019-06-10T11:11:05.208Z,34.68
2019-06-10T11:13:38.592Z,34.68
2019-06-10T11:16:09.652Z,34.85
2019-06-10T11:18:42.282Z,34.93
2019-06-10T11:21:13.542Z,34.97
2019-06-10T11:23:46.172Z,34.86
2019-06-10T11:26:17.671Z,35.03
2019-06-10T11:28:49.527Z,35.14
2019-06-10T11:31:22.696Z,35.35
2019-06-10T11:33:57.329Z,35.44
2019-06-10T11:36:26.833Z,35.54
2019-06-10T11:38:59.222Z,35.73
2019-06-10T11:41:32.502Z,35.57
2019-06-10T11:44:03.319Z,35.59
2019-06-10T11:46:34.493Z,35.71
2019-06-10T11:49:05.657Z,35.78
2019-06-10T11:51:36.609Z,35.74
2019-06-10T11:54:07.950Z,35.97
2019-06-10T11:56:38.828Z,35.81
2019-06-10T11:59:10.326Z,35.93
2019-06-10T12:01:43.100Z,36.11
2019-06-10T12:04:14.179Z,36.23
2019-06-10T12:06:45.571Z,36.12
2019-06-10T12:09:16.665Z,36.22
2019-06-10T12:11:49.058Z,36.40
2019-06-10T12:14:23.857Z,36.70
2019-06-10T12:19:26.017Z,36.61
2019-06-10T12:22:00.325Z,36.47
2019-06-10T12:24:32.830Z,36.57
2019-06-10T12:27:05.024Z,36.60
2019-06-10T12:29:35.513Z,36.62
2019-06-10T12:32:07.615Z,36.11
2019-06-10T12:34:38.839Z,36.49
2019-06-10T12:37:14.815Z,36.52
2019-06-10T12:39:43.088Z,36.54
2019-06-10T12:42:14.485Z,36.81
2019-06-10T12:44:46.058Z,36.88
2019-06-10T12:47:17.002Z,37.19
2019-06-10T12:49:48.114Z,37.30
2019-06-10T12:52:19.450Z,37.27
2019-06-10T12:54:50.757Z,37.15
2019-06-10T12:57:23.013Z,37.20
2019-06-10T12:59:54.526Z,37.12
2019-06-10T13:02:31.157Z,37.09
2019-06-10T13:04:59.628Z,37.02
2019-06-10T13:07:33.402Z,36.80
2019-06-10T13:10:15.603Z,36.28
2019-06-10T13:12:48.973Z,36.34
2019-06-10T13:15:22.125Z,36.65
2019-06-10T13:17:53.849Z,36.53
2019-06-10T13:20:24.892Z,36.53
2019-06-10T13:22:56.243Z,36.49
2019-06-10T13:25:27.693Z,36.56
2019-06-10T13:27:59.810Z,36.64
2019-06-10T13:30:34.140Z,36.61
2019-06-10T13:33:10.473Z,36.41
2019-06-10T13:35:37.376Z,36.25
2019-06-10T13:38:08.676Z,36.19
2019-06-10T13:40:39.816Z,36.22
2019-06-10T13:43:12.462Z,36.14
2019-06-10T13:45:44.336Z,36.04
2019-06-10T13:48:15.313Z,35.96
2019-06-10T13:50:46.525Z,36.01
2019-06-10T13:53:17.552Z,35.93
2019-06-10T13:55:48.893Z,35.51
2019-06-10T13:58:22.818Z,35.64
2019-06-10T14:00:53.581Z,35.66
2019-06-10T14:03:25.196Z,35.61
2019-06-10T14:05:59.782Z,35.60
2019-06-10T14:08:28.855Z,35.59
2019-06-10T14:11:03.338Z,35.46
2019-06-10T14:13:32.791Z,35.46
2019-06-10T14:16:05.485Z,35.37
2019-06-10T14:18:36.821Z,35.04
2019-06-10T14:21:11.620Z,35.01
2019-06-10T14:23:42.334Z,35.11
2019-06-10T14:26:17.005Z,35.18
2019-06-10T14:28:46.686Z,35.13
2019-06-10T14:31:38.679Z,35.11
2019-06-10T14:33:53.107Z,35.10
2019-06-10T14:36:23.153Z,35.05
2019-06-10T14:38:54.043Z,35.12
2019-06-10T14:41:26.018Z,35.07
2019-06-10T14:43:57.287Z,35.06
2019-06-10T14:46:28.426Z,35.08
2019-06-10T14:48:59.333Z,35.05
2019-06-10T14:51:32.478Z,35.02
2019-06-10T14:54:03.242Z,34.98
2019-06-10T14:56:47.179Z,34.96
2019-06-10T14:59:07.555Z,34.90
2019-06-10T15:01:38.936Z,35.00
2019-06-10T15:04:10.205Z,34.93
2019-06-10T15:06:43.130Z,34.92
2019-06-10T15:09:15.669Z,34.89
2019-06-10T15:11:46.715Z,34.89
2019-06-10T15:14:18.192Z,34.87
2019-06-10T15:16:49.194Z,34.88
2019-06-10T15:19:28.033Z,34.84
2019-06-10T15:21:52.955Z,34.80
2019-06-10T15:24:24.011Z,34.74
2019-06-10T15:27:08.876Z,34.71
2019-06-10T15:29:27.861Z,34.67
2019-06-10T15:32:10.183Z,34.63
2019-06-10T15:34:32.543Z,34.62
2019-06-10T15:37:03.954Z,34.55
2019-06-10T15:39:35.318Z,34.53
2019-06-10T15:42:06.494Z,34.48
2019-06-10T15:44:48.886Z,34.35
2019-06-10T15:47:13.876Z,34.36
2019-06-10T15:49:42.948Z,34.36
2019-06-10T15:52:17.471Z,34.28
2019-06-10T15:54:47.254Z,34.22
2019-06-10T15:57:32.237Z,34.13
2019-06-10T15:59:52.117Z,34.07
2019-06-10T16:02:25.596Z,34.06
2019-06-10T16:04:56.198Z,34.03
2019-06-10T16:07:35.134Z,33.96
2019-06-10T16:10:12.177Z,33.93
2019-06-10T16:12:43.888Z,33.92
2019-06-10T16:15:16.575Z,33.79
2019-06-10T16:17:47.880Z,33.80
2019-06-10T16:20:19.445Z,33.74
2019-06-10T16:22:52.321Z,33.72
2019-06-10T16:25:26.475Z,33.69
2019-06-10T16:27:56.453Z,33.63
2019-06-10T16:30:27.492Z,33.58
2019-06-10T16:32:58.655Z,33.56
2019-06-10T16:35:32.121Z,33.56
2019-06-10T16:38:02.586Z,33.54
2019-06-10T16:40:33.538Z,33.50
2019-06-10T16:43:04.528Z,33.48
2019-06-10T16:45:37.059Z,33.42
2019-06-10T16:48:08.254Z,33.43
2019-06-10T16:50:42.479Z,33.40
2019-06-10T16:53:13.733Z,33.37
2019-06-10T16:55:44.878Z,33.37
2019-06-10T16:58:15.881Z,33.32
2019-06-10T17:00:46.846Z,33.26
2019-06-10T17:03:18.384Z,33.19
2019-06-10T17:05:50.024Z,33.15
2019-06-10T17:08:24.942Z,33.11
2019-06-10T17:10:54.049Z,33.07
2019-06-10T17:13:27.256Z,33.01
2019-06-10T17:15:59.844Z,33.01
2019-06-10T17:18:33.382Z,32.95
2019-06-10T17:21:04.252Z,32.93
2019-06-10T17:23:36.732Z,32.89
2019-06-10T17:26:07.924Z,32.87
2019-06-10T17:28:39.048Z,32.81
2019-06-10T17:31:10.107Z,32.74
2019-06-10T17:33:42.742Z,32.69
2019-06-10T17:36:14.137Z,32.61
2019-06-10T17:38:46.245Z,32.54
2019-06-10T17:41:17.301Z,32.47
2019-06-10T17:43:48.697Z,32.39
2019-06-10T17:46:21.745Z,32.31
2019-06-10T17:48:52.873Z,32.24
2019-06-10T17:51:26.188Z,32.19
2019-06-10T17:53:56.908Z,32.07
2019-06-10T17:56:29.188Z,31.97
2019-06-10T17:59:03.158Z,31.89
2019-06-10T18:01:35.263Z,31.78
2019-06-10T18:04:06.389Z,31.68
2019-06-10T18:06:37.286Z,31.59
2019-06-10T18:09:09.239Z,31.53
2019-06-10T18:11:42.469Z,31.41
2019-06-10T18:14:12.988Z,31.37
2019-06-10T18:16:43.999Z,31.16
2019-06-10T18:19:15.166Z,31.02
2019-06-10T18:21:46.330Z,30.85
2019-06-10T18:24:20.653Z,30.68
2019-06-10T18:26:52.751Z,30.51
2019-06-10T18:29:23.196Z,30.39
2019-06-10T18:31:54.787Z,30.30
2019-06-10T18:34:25.970Z,30.14
2019-06-10T18:36:59.194Z,30.04
2019-06-10T18:39:31.456Z,29.90
2019-06-10T18:42:03.322Z,29.81
2019-06-10T18:44:37.080Z,29.67
2019-06-10T18:47:07.551Z,29.59
2019-06-10T18:49:38.624Z,29.54
2019-06-10T18:52:12.671Z,29.43
2019-06-10T18:54:43.762Z,29.38
2019-06-10T18:57:14.741Z,29.28
2019-06-10T18:59:45.768Z,29.20
2019-06-10T19:02:17.706Z,29.10
2019-06-10T19:04:48.675Z,29.02
2019-06-10T19:07:19.751Z,28.94
2019-06-10T19:09:52.713Z,28.84
2019-06-10T19:12:23.447Z,28.82
2019-06-10T19:14:54.607Z,28.78
2019-06-10T19:17:25.817Z,28.72
2019-06-10T19:19:56.639Z,28.69
2019-06-10T19:22:27.557Z,28.62
2019-06-10T19:24:58.716Z,28.60
2019-06-10T19:27:31.286Z,28.57
2019-06-10T19:30:02.504Z,28.57
2019-06-10T19:32:35.558Z,28.53
2019-06-10T19:35:12.941Z,28.46
2019-06-10T19:37:43.671Z,28.41
2019-06-10T19:40:16.613Z,28.37
2019-06-10T19:42:47.589Z,28.32
2019-06-10T19:45:19.018Z,28.27
2019-06-10T19:47:52.272Z,28.26
2019-06-10T19:50:23.247Z,28.23
2019-06-10T19:52:54.313Z,28.21
2019-06-10T19:55:25.661Z,28.19
2019-06-10T19:57:56.702Z,28.18
2019-06-10T20:00:27.825Z,28.16
2019-06-10T20:02:58.945Z,28.15
2019-06-10T20:05:32.399Z,28.14
2019-06-10T20:08:03.188Z,28.10
2019-06-10T20:10:34.256Z,28.05
2019-06-10T20:13:06.121Z,27.99
2019-06-10T20:15:37.428Z,27.96
2019-06-10T20:18:08.930Z,27.93
2019-06-10T20:20:40.131Z,27.90
2019-06-10T20:23:11.255Z,27.86
2019-06-10T20:25:44.470Z,27.75
2019-06-10T20:28:15.392Z,27.70
2019-06-10T20:30:49.018Z,27.66
2019-06-10T20:33:33.864Z,27.64
2019-06-10T20:36:07.966Z,27.62
2019-06-10T20:38:36.234Z,27.59
2019-06-10T20:41:07.552Z,27.57
2019-06-10T20:43:39.223Z,27.54
2019-06-10T20:46:12.811Z,27.52
2019-06-10T20:48:45.188Z,27.49
2019-06-10T20:51:15.890Z,27.43
2019-06-10T20:53:47.973Z,27.41
2019-06-10T20:56:20.412Z,27.37
2019-06-10T20:58:52.710Z,27.31
2019-06-10T21:01:25.135Z,27.28
2019-06-10T21:03:56.748Z,27.26
2019-06-10T21:06:32.567Z,27.25
2019-06-10T21:09:04.181Z,27.19
2019-06-10T21:11:35.166Z,27.15
2019-06-10T21:14:06.321Z,27.09
2019-06-10T21:16:37.456Z,27.07
2019-06-10T21:19:10.026Z,27.02
2019-06-10T21:21:45.116Z,27.01
2019-06-10T21:24:13.963Z,26.99
2019-06-10T21:26:47.057Z,26.91
2019-06-10T21:29:17.566Z,26.90
2019-06-10T21:31:50.433Z,26.85
2019-06-10T21:34:22.529Z,26.82
2019-06-10T21:36:54.347Z,26.77
2019-06-10T21:39:27.088Z,26.74
2019-06-10T21:41:58.254Z,26.73
2019-06-10T21:44:29.346Z,26.61
2019-06-10T21:47:02.460Z,26.60
2019-06-10T21:49:33.776Z,26.55
2019-06-10T21:52:05.120Z,26.48
2019-06-10T21:54:36.306Z,26.40
2019-06-10T21:57:07.478Z,26.40
2019-06-10T21:59:38.358Z,26.37
2019-06-10T22:02:09.516Z,26.35
2019-06-10T22:04:40.682Z,26.35
2019-06-10T22:07:11.826Z,26.32
2019-06-10T22:09:44.114Z,26.29
2019-06-10T22:12:15.506Z,26.29
2019-06-10T22:14:46.790Z,26.25
2019-06-10T22:17:17.888Z,26.24
2019-06-10T22:19:48.878Z,26.21
2019-06-10T22:22:19.897Z,26.18
2019-06-10T22:24:53.357Z,26.15
2019-06-10T22:27:24.388Z,26.14
2019-06-10T22:29:57.050Z,26.10
2019-06-10T22:32:28.748Z,26.09
2019-06-10T22:35:00.075Z,26.05
2019-06-10T22:37:32.989Z,26.04
2019-06-10T22:40:05.762Z,25.99
2019-06-10T22:42:36.800Z,25.93
2019-06-10T22:45:08.848Z,25.89
2019-06-10T22:47:39.770Z,25.85
2019-06-10T22:50:12.611Z,25.80
2019-06-10T22:52:43.786Z,25.76
